Keuterville, Idaho
Current Conditions -  °F | °C
As of 9:15 PM on Thursday 30 Oct 2014 (Local Time) from KGIC Reporting Station
Clear Clear  
Wind Chill: 44°   Ceiling: Unl
Heat Index: 47°   Visibility: 10mi
Dew Point: 38°   Wind: 7mph
Humidity: 72%   Direction: 170°S
Pressure: 29.93"   Gusts: NA
Location:  45.9123°N, 116.505°W
Report Text: KGIC 310415Z AUTO 17006KT 10SM CLR 08/04 A2993 RMK AO1 T00830035
Loading
Personal Weather Stations






























Interactive Weather Map
Tropical Storm Tracking
New forecast layout! Learn more

10-Day Weather Forecast

Advertisements
Track Severe Weather on mobile